createdAt,value
2018-07-03T00:01:17.732Z,13.10
2018-07-03T00:03:45.560Z,12.90
2018-07-03T00:06:13.321Z,12.80
2018-07-03T00:08:41.041Z,12.70
2018-07-03T00:11:08.792Z,12.70
2018-07-03T00:13:36.595Z,12.70
2018-07-03T00:16:04.287Z,12.70
2018-07-03T00:18:32.156Z,12.70
2018-07-03T00:20:59.780Z,12.60
2018-07-03T00:23:27.582Z,12.60
2018-07-03T00:25:55.252Z,12.60
2018-07-03T00:28:22.953Z,12.60
2018-07-03T00:30:50.663Z,12.60
2018-07-03T00:33:18.422Z,12.60
2018-07-03T00:38:13.804Z,12.50
2018-07-03T00:40:41.477Z,12.50
2018-07-03T00:43:09.376Z,12.40
2018-07-03T00:48:04.910Z,12.40
2018-07-03T00:50:32.578Z,12.40
2018-07-03T00:53:00.312Z,12.40
2018-07-03T00:55:27.992Z,12.40
2018-07-03T00:57:55.720Z,12.40
2018-07-03T01:00:32.302Z,12.30
2018-07-03T01:03:00.716Z,12.30
2018-07-03T01:05:28.569Z,12.30
2018-07-03T01:07:56.612Z,12.30
2018-07-03T01:10:24.865Z,12.20
2018-07-03T01:12:53.142Z,12.10
2018-07-03T01:15:20.877Z,12.10
2018-07-03T01:17:48.636Z,12.10
2018-07-03T01:20:16.389Z,12.00
2018-07-03T01:22:44.112Z,12.00
2018-07-03T01:25:11.933Z,12.00
2018-07-03T01:27:39.716Z,12.00
2018-07-03T01:30:11.254Z,12.00
2018-07-03T01:32:38.927Z,11.90
2018-07-03T01:35:06.785Z,11.90
2018-07-03T01:37:34.520Z,11.80
2018-07-03T01:40:02.253Z,11.70
2018-07-03T01:42:29.964Z,11.80
2018-07-03T01:44:57.644Z,11.70
2018-07-03T01:47:25.508Z,11.70
2018-07-03T01:49:53.283Z,11.70
2018-07-03T01:52:21.010Z,11.70
2018-07-03T01:54:48.709Z,11.80
2018-07-03T01:57:16.460Z,11.70
2018-07-03T01:59:44.219Z,11.70
2018-07-03T02:02:11.998Z,11.70
2018-07-03T02:04:39.830Z,11.60
2018-07-03T02:07:07.779Z,11.50
2018-07-03T02:12:03.085Z,11.30
2018-07-03T02:14:30.942Z,11.30
2018-07-03T02:16:58.754Z,11.40
2018-07-03T02:19:26.536Z,11.40
2018-07-03T02:21:54.205Z,11.30
2018-07-03T02:24:21.994Z,11.40
2018-07-03T02:26:49.620Z,11.40
2018-07-03T02:29:17.492Z,11.40
2018-07-03T02:34:12.773Z,11.40
2018-07-03T02:36:40.469Z,11.40
2018-07-03T02:39:09.645Z,11.50
2018-07-03T02:41:37.482Z,11.40
2018-07-03T02:44:05.293Z,11.30
2018-07-03T02:46:33.115Z,11.20
2018-07-03T02:49:00.768Z,11.10
2018-07-03T02:51:28.482Z,11.10
2018-07-03T02:53:56.183Z,11.20
2018-07-03T02:56:23.946Z,11.10
2018-07-03T02:58:51.612Z,11.20
2018-07-03T03:01:19.337Z,11.20
2018-07-03T03:03:47.048Z,11.20
2018-07-03T03:06:14.754Z,11.20
2018-07-03T03:08:42.464Z,11.30
2018-07-03T03:11:10.120Z,11.20
2018-07-03T03:13:37.896Z,11.20
2018-07-03T03:16:05.705Z,11.20
2018-07-03T03:18:33.523Z,11.10
2018-07-03T03:21:01.287Z,11.00
2018-07-03T03:23:29.019Z,11.10
2018-07-03T03:25:56.655Z,11.00
2018-07-03T03:28:24.368Z,11.10
2018-07-03T03:30:52.032Z,11.10
2018-07-03T03:33:19.901Z,11.20
2018-07-03T03:35:47.577Z,11.20
2018-07-03T03:38:15.213Z,11.20
2018-07-03T03:40:42.935Z,11.20
2018-07-03T03:43:10.636Z,11.10
2018-07-03T03:45:38.364Z,11.10
2018-07-03T03:48:06.143Z,11.20
2018-07-03T03:50:33.956Z,11.20
2018-07-03T03:53:01.612Z,11.20
2018-07-03T03:55:29.292Z,11.10
2018-07-03T03:57:56.996Z,11.30
2018-07-03T04:00:24.800Z,11.30
2018-07-03T04:05:20.192Z,11.50
2018-07-03T04:07:47.867Z,11.60
2018-07-03T04:10:15.724Z,11.70
2018-07-03T04:12:43.348Z,11.70
2018-07-03T04:15:11.229Z,11.70
2018-07-03T04:17:38.966Z,12.00
2018-07-03T04:20:08.892Z,12.10
2018-07-03T04:22:37.029Z,12.20
2018-07-03T04:25:04.811Z,12.30
2018-07-03T04:27:32.672Z,12.40
2018-07-03T04:30:00.428Z,12.50
2018-07-03T04:32:28.110Z,12.60
2018-07-03T04:34:55.804Z,12.80
2018-07-03T04:37:23.492Z,12.90
2018-07-03T04:39:51.385Z,13.10
2018-07-03T04:42:19.065Z,13.30
2018-07-03T04:44:46.714Z,13.40
2018-07-03T04:47:14.464Z,13.50
2018-07-03T04:49:42.099Z,13.70
2018-07-03T04:52:09.830Z,13.80
2018-07-03T04:54:37.520Z,13.90
2018-07-03T04:57:05.477Z,14.20
2018-07-03T04:59:33.231Z,14.30
2018-07-03T05:02:01.101Z,14.40
2018-07-03T05:04:28.800Z,14.50
2018-07-03T05:06:56.509Z,14.70
2018-07-03T05:09:24.158Z,14.80
2018-07-03T05:11:51.841Z,14.90
2018-07-03T05:14:19.512Z,15.10
2018-07-03T05:16:51.744Z,15.30
2018-07-03T05:19:19.516Z,15.50
2018-07-03T05:21:47.200Z,15.70
2018-07-03T05:24:14.968Z,15.90
2018-07-03T05:26:42.768Z,16.00
2018-07-03T05:29:10.541Z,16.20
2018-07-03T05:31:38.437Z,16.30
2018-07-03T05:34:06.873Z,16.40
2018-07-03T05:36:34.789Z,16.50
2018-07-03T05:39:02.684Z,16.60
2018-07-03T05:41:30.480Z,16.80
2018-07-03T05:43:58.204Z,16.90
2018-07-03T05:46:26.746Z,17.10
2018-07-03T05:48:54.404Z,17.30
2018-07-03T05:51:22.603Z,17.60
2018-07-03T05:53:50.324Z,17.70
2018-07-03T05:56:18.059Z,17.90
2018-07-03T05:58:45.810Z,18.10
2018-07-03T06:01:13.493Z,18.40
2018-07-03T06:03:41.454Z,18.70
2018-07-03T06:06:09.301Z,19.10
2018-07-03T06:08:36.948Z,19.40
2018-07-03T06:11:04.601Z,19.70
2018-07-03T06:13:32.401Z,19.90
2018-07-03T06:16:00.076Z,20.10
2018-07-03T06:18:27.892Z,20.40
2018-07-03T06:20:57.440Z,20.50
2018-07-03T06:23:25.305Z,20.80
2018-07-03T06:25:54.040Z,21.00
2018-07-03T06:28:21.783Z,21.30
2018-07-03T06:30:49.581Z,21.30
2018-07-03T06:33:17.376Z,21.30
2018-07-03T06:35:45.078Z,21.60
2018-07-03T06:38:12.731Z,21.80
2018-07-03T06:40:40.392Z,22.10
2018-07-03T06:43:08.133Z,22.60
2018-07-03T06:48:03.621Z,24.00
2018-07-03T06:50:32.298Z,24.90
2018-07-03T06:52:59.973Z,25.90
2018-07-03T06:55:27.686Z,26.70
2018-07-03T06:57:55.659Z,26.90
2018-07-03T07:00:23.333Z,27.30
2018-07-03T07:02:51.016Z,27.80
2018-07-03T07:05:18.683Z,28.10
2018-07-03T07:07:47.374Z,28.30
2018-07-03T07:10:15.141Z,29.40
2018-07-03T07:12:42.828Z,29.50
2018-07-03T07:15:10.696Z,29.50
2018-07-03T07:17:38.678Z,29.20
2018-07-03T07:20:08.431Z,29.80
2018-07-03T07:22:36.160Z,30.60
2018-07-03T07:25:03.952Z,31.40
2018-07-03T07:27:31.644Z,31.80
2018-07-03T07:29:59.327Z,31.30
2018-07-03T07:32:27.180Z,30.20
2018-07-03T07:34:54.859Z,29.60
2018-07-03T07:37:22.783Z,28.00
2018-07-03T07:39:50.618Z,27.40
2018-07-03T07:42:18.289Z,27.00
2018-07-03T07:44:46.064Z,27.30
2018-07-03T07:47:13.772Z,26.90
2018-07-03T07:49:41.627Z,27.70
2018-07-03T07:52:09.287Z,28.20
2018-07-03T07:54:37.210Z,30.10
2018-07-03T07:57:05.086Z,30.70
2018-07-03T07:59:32.793Z,31.50
2018-07-03T08:02:00.484Z,31.50
2018-07-03T08:04:28.184Z,31.30
2018-07-03T08:06:55.829Z,30.30
2018-07-03T08:09:23.557Z,30.40
2018-07-03T08:11:51.276Z,30.20
2018-07-03T08:14:18.998Z,30.70
2018-07-03T08:16:46.700Z,31.60
2018-07-03T08:19:14.623Z,32.00
2018-07-03T08:21:42.256Z,31.90
2018-07-03T08:24:09.996Z,31.00
2018-07-03T08:26:37.730Z,30.80
2018-07-03T08:29:06.447Z,29.80
2018-07-03T08:31:34.213Z,31.00
2018-07-03T08:34:02.736Z,30.30
2018-07-03T08:36:30.479Z,30.40
2018-07-03T08:38:58.304Z,31.90
2018-07-03T08:41:26.256Z,31.80
2018-07-03T08:43:54.603Z,31.20
2018-07-03T08:46:22.302Z,31.90
2018-07-03T08:48:49.943Z,32.90
2018-07-03T08:51:17.929Z,32.10
2018-07-03T08:53:45.734Z,31.40
2018-07-03T08:56:13.468Z,32.00
2018-07-03T08:58:41.213Z,32.90
2018-07-03T09:01:08.867Z,33.30
2018-07-03T09:03:36.602Z,33.60
2018-07-03T09:06:04.444Z,32.80
2018-07-03T09:08:32.145Z,32.70
2018-07-03T09:10:59.810Z,31.90
2018-07-03T09:13:27.525Z,32.10
2018-07-03T09:15:55.276Z,31.70
2018-07-03T09:18:22.957Z,32.20
2018-07-03T09:20:50.788Z,31.40
2018-07-03T09:23:18.616Z,31.00
2018-07-03T09:25:46.381Z,30.90
2018-07-03T09:28:14.123Z,30.20
2018-07-03T09:30:41.913Z,30.30
2018-07-03T09:33:09.592Z,30.80
2018-07-03T09:35:37.275Z,31.80
2018-07-03T09:38:04.969Z,33.00
2018-07-03T09:43:01.032Z,33.00
2018-07-03T09:45:29.628Z,32.00
2018-07-03T09:47:58.235Z,32.60
2018-07-03T09:50:26.412Z,33.10
2018-07-03T09:52:54.148Z,33.80
2018-07-03T09:55:21.854Z,33.20
2018-07-03T09:57:49.636Z,33.20
2018-07-03T10:00:21.891Z,32.60
2018-07-03T10:02:49.527Z,31.30
2018-07-03T10:05:17.269Z,30.70
2018-07-03T10:07:45.118Z,31.60
2018-07-03T10:10:12.873Z,31.60
2018-07-03T10:12:40.564Z,30.50
2018-07-03T10:15:08.418Z,29.20
2018-07-03T10:17:36.132Z,29.50
2018-07-03T10:20:04.023Z,30.00
2018-07-03T10:22:31.931Z,31.20
2018-07-03T10:24:59.871Z,31.90
2018-07-03T10:27:27.577Z,32.40
2018-07-03T10:29:55.326Z,33.00
2018-07-03T10:32:23.056Z,33.50
2018-07-03T10:34:50.773Z,33.80
2018-07-03T10:37:18.508Z,33.50
2018-07-03T10:39:46.172Z,32.00
2018-07-03T10:42:13.955Z,31.90
2018-07-03T10:44:41.683Z,32.80
2018-07-03T10:47:09.461Z,33.50
2018-07-03T10:49:37.130Z,34.00
2018-07-03T10:52:05.041Z,34.80
2018-07-03T10:54:32.828Z,35.30
2018-07-03T10:57:00.492Z,33.40
2018-07-03T10:59:28.328Z,33.60
2018-07-03T11:01:56.020Z,33.50
2018-07-03T11:04:23.791Z,32.10
2018-07-03T11:06:51.472Z,32.00
2018-07-03T11:09:19.365Z,31.60
2018-07-03T11:11:47.100Z,31.50
2018-07-03T11:14:14.848Z,31.60
2018-07-03T11:16:42.673Z,31.00
2018-07-03T11:19:10.452Z,32.30
2018-07-03T11:21:38.412Z,31.70
2018-07-03T11:24:06.493Z,32.60
2018-07-03T11:26:34.173Z,33.30
2018-07-03T11:29:02.031Z,34.40
2018-07-03T11:31:29.733Z,35.20
2018-07-03T11:33:57.577Z,35.50
2018-07-03T11:36:25.218Z,34.30
2018-07-03T11:38:52.965Z,34.20
2018-07-03T11:41:20.635Z,34.60
2018-07-03T11:43:48.389Z,35.30
2018-07-03T11:46:16.128Z,35.80
2018-07-03T11:48:43.852Z,35.00
2018-07-03T11:51:11.544Z,35.50
2018-07-03T11:53:39.421Z,35.60
2018-07-03T11:56:07.088Z,35.50
2018-07-03T11:58:35.577Z,34.60
2018-07-03T12:01:03.427Z,34.30
2018-07-03T12:03:31.106Z,34.60
2018-07-03T12:05:59.017Z,34.80
2018-07-03T12:08:26.712Z,35.40
2018-07-03T12:10:54.461Z,35.30
2018-07-03T12:13:22.156Z,35.70
2018-07-03T12:15:49.961Z,36.00
2018-07-03T12:19:20.917Z,36.90
2018-07-03T12:21:48.650Z,35.70
2018-07-03T12:24:16.374Z,35.40
2018-07-03T12:26:44.108Z,35.20
2018-07-03T12:29:11.842Z,34.50
2018-07-03T12:31:39.698Z,33.80
2018-07-03T12:34:07.383Z,32.70
2018-07-03T12:36:35.107Z,31.90
2018-07-03T12:39:04.068Z,32.00
2018-07-03T12:41:31.797Z,31.60
2018-07-03T12:43:59.540Z,31.30
2018-07-03T12:46:27.249Z,31.20
2018-07-03T12:48:55.888Z,30.70
2018-07-03T12:51:23.599Z,30.00
2018-07-03T12:53:51.405Z,29.60
2018-07-03T12:56:19.221Z,29.30
2018-07-03T12:58:46.922Z,29.40
2018-07-03T13:01:15.095Z,29.30
2018-07-03T13:03:43.159Z,29.20
2018-07-03T13:06:11.041Z,29.20
2018-07-03T13:08:38.776Z,29.30
2018-07-03T13:11:06.621Z,29.20
2018-07-03T13:13:34.354Z,29.30
2018-07-03T13:16:02.209Z,29.00
2018-07-03T13:18:29.899Z,28.90
2018-07-03T13:20:57.664Z,29.00
2018-07-03T13:23:25.354Z,29.30
2018-07-03T13:25:53.211Z,29.80
2018-07-03T13:28:21.044Z,31.00
2018-07-03T13:30:48.770Z,31.80
2018-07-03T13:33:16.477Z,32.10
2018-07-03T13:35:44.190Z,32.50
2018-07-03T13:38:12.036Z,32.70
2018-07-03T13:40:39.888Z,32.60
2018-07-03T13:43:07.857Z,32.40
2018-07-03T13:45:35.969Z,32.10
2018-07-03T13:48:03.931Z,31.40
2018-07-03T13:50:31.659Z,31.00
2018-07-03T13:52:59.349Z,31.30
2018-07-03T13:55:27.116Z,31.10
2018-07-03T13:57:54.832Z,31.10
2018-07-03T14:00:22.733Z,30.90
2018-07-03T14:02:50.515Z,30.50
2018-07-03T14:05:18.280Z,30.50
2018-07-03T14:07:46.081Z,31.30
2018-07-03T14:10:14.440Z,32.20
2018-07-03T14:12:42.208Z,33.20
2018-07-03T14:15:10.112Z,33.90
2018-07-03T14:17:38.671Z,32.60
2018-07-03T14:20:06.903Z,32.00
2018-07-03T14:22:34.674Z,32.00
2018-07-03T14:25:02.554Z,32.90
2018-07-03T14:27:30.307Z,34.70
2018-07-03T14:29:58.056Z,35.00
2018-07-03T14:32:25.824Z,34.80
2018-07-03T14:34:53.610Z,34.60
2018-07-03T14:37:21.328Z,34.20
2018-07-03T14:39:49.021Z,35.10
2018-07-03T14:42:16.768Z,35.80
2018-07-03T14:44:44.507Z,35.60
2018-07-03T14:47:12.255Z,35.90
2018-07-03T14:49:40.125Z,35.40
2018-07-03T14:52:07.920Z,35.50
2018-07-03T14:54:35.638Z,35.00
2018-07-03T14:57:03.584Z,34.60
2018-07-03T14:59:31.336Z,33.90
2018-07-03T15:01:59.277Z,34.30
2018-07-03T15:04:27.018Z,35.00
2018-07-03T15:06:54.728Z,35.90
2018-07-03T15:09:22.452Z,35.60
2018-07-03T15:11:50.180Z,35.60
2018-07-03T15:14:17.952Z,35.00
2018-07-03T15:16:47.079Z,35.50
2018-07-03T15:19:20.425Z,35.40
2018-07-03T15:21:48.056Z,35.20
2018-07-03T15:24:15.802Z,34.60
2018-07-03T15:26:43.529Z,35.10
2018-07-03T15:29:11.968Z,35.00
2018-07-03T15:31:39.777Z,34.60
2018-07-03T15:34:08.494Z,34.50
2018-07-03T15:36:36.344Z,34.60
2018-07-03T15:39:08.847Z,34.20
2018-07-03T15:41:36.590Z,33.40
2018-07-03T15:44:15.588Z,32.60
2018-07-03T15:46:43.496Z,31.60
2018-07-03T15:49:11.180Z,31.00
2018-07-03T15:51:39.074Z,30.70
2018-07-03T15:54:06.999Z,30.60
2018-07-03T15:56:34.717Z,30.40
2018-07-03T15:59:02.460Z,30.20
2018-07-03T16:01:30.291Z,30.00
2018-07-03T16:05:21.668Z,29.80
2018-07-03T16:08:07.356Z,29.60
2018-07-03T16:10:35.030Z,29.30
2018-07-03T16:13:02.828Z,29.40
2018-07-03T16:15:37.592Z,29.60
2018-07-03T16:18:05.577Z,29.60
2018-07-03T16:20:38.216Z,29.70
2018-07-03T16:23:06.124Z,29.70
2018-07-03T16:25:33.862Z,29.50
2018-07-03T16:28:01.716Z,29.50
2018-07-03T16:30:29.510Z,29.60
2018-07-03T16:32:57.236Z,29.50
2018-07-03T16:35:24.936Z,29.40
2018-07-03T16:37:52.856Z,29.60
2018-07-03T16:40:20.756Z,29.70
2018-07-03T16:42:48.556Z,29.60
2018-07-03T16:45:16.352Z,29.40
2018-07-03T16:47:44.508Z,29.60
2018-07-03T16:50:12.280Z,29.50
2018-07-03T16:52:40.051Z,29.30
2018-07-03T16:55:08.542Z,29.40
2018-07-03T16:57:36.559Z,29.50
2018-07-03T17:00:04.665Z,29.50
2018-07-03T17:02:32.576Z,29.30
2018-07-03T17:07:29.305Z,28.90
2018-07-03T17:09:57.046Z,28.90
2018-07-03T17:12:24.882Z,28.80
2018-07-03T17:14:52.589Z,28.70
2018-07-03T17:17:20.432Z,28.60
2018-07-03T17:19:48.177Z,28.80
2018-07-03T17:22:15.977Z,28.70
2018-07-03T17:24:43.686Z,28.60
2018-07-03T17:27:11.464Z,28.40
2018-07-03T17:29:39.197Z,28.20
2018-07-03T17:32:06.928Z,28.20
2018-07-03T17:34:34.702Z,28.20
2018-07-03T17:37:02.502Z,28.20
2018-07-03T17:39:41.900Z,28.30
2018-07-03T17:42:20.868Z,28.30
2018-07-03T17:45:56.880Z,28.20
2018-07-03T17:48:24.697Z,28.00
2018-07-03T17:50:52.485Z,28.00
2018-07-03T17:53:20.208Z,28.00
2018-07-03T17:55:47.944Z,27.90
2018-07-03T17:58:15.705Z,27.80
2018-07-03T18:00:43.455Z,27.90
2018-07-03T18:03:11.173Z,27.70
2018-07-03T18:05:38.848Z,27.70
2018-07-03T18:08:06.613Z,27.60
2018-07-03T18:10:34.384Z,27.70
2018-07-03T18:13:02.184Z,27.60
2018-07-03T18:15:29.902Z,27.60
2018-07-03T18:17:57.746Z,27.50
2018-07-03T18:20:25.517Z,27.40
2018-07-03T18:22:53.281Z,27.40
2018-07-03T18:25:21.027Z,27.30
2018-07-03T18:27:48.808Z,27.30
2018-07-03T18:30:16.743Z,27.30
2018-07-03T18:32:44.532Z,27.00
2018-07-03T18:35:12.333Z,26.80
2018-07-03T18:37:40.327Z,26.80
2018-07-03T18:40:08.196Z,26.70
2018-07-03T18:42:35.880Z,26.50
2018-07-03T18:47:56.717Z,25.80
2018-07-03T18:50:24.453Z,25.70
2018-07-03T18:52:52.174Z,25.50
2018-07-03T18:55:19.905Z,25.40
2018-07-03T18:57:47.804Z,25.30
2018-07-03T19:00:15.557Z,25.10
2018-07-03T19:02:43.300Z,25.00
2018-07-03T19:05:11.042Z,24.90
2018-07-03T19:07:39.126Z,24.70
2018-07-03T19:10:06.924Z,24.60
2018-07-03T19:12:35.213Z,24.60
2018-07-03T19:15:03.069Z,24.50
2018-07-03T19:20:24.241Z,24.30
2018-07-03T19:22:52.100Z,24.20
2018-07-03T19:25:20.158Z,24.00
2018-07-03T19:27:47.879Z,23.90
2018-07-03T19:30:15.587Z,23.90
2018-07-03T19:32:43.395Z,23.80
2018-07-03T19:35:11.086Z,23.70
2018-07-03T19:37:38.982Z,23.70
2018-07-03T19:40:11.921Z,23.60
2018-07-03T19:42:50.012Z,23.30
2018-07-03T19:45:17.761Z,23.40
2018-07-03T19:47:45.509Z,23.20
2018-07-03T19:50:13.264Z,22.90
2018-07-03T19:52:41.013Z,22.80
2018-07-03T19:55:08.856Z,22.80
2018-07-03T19:57:36.632Z,22.70
2018-07-03T20:00:05.096Z,22.60
2018-07-03T20:02:32.882Z,22.50
2018-07-03T20:05:00.774Z,22.40
2018-07-03T20:07:28.555Z,22.30
2018-07-03T20:09:56.305Z,22.00
2018-07-03T20:12:24.028Z,21.80
2018-07-03T20:14:51.759Z,21.60
2018-07-03T20:17:19.530Z,21.60
2018-07-03T20:19:47.370Z,21.50
2018-07-03T20:22:15.115Z,21.40
2018-07-03T20:24:42.801Z,21.20
2018-07-03T20:27:10.579Z,21.10
2018-07-03T20:29:38.340Z,21.10
2018-07-03T20:32:06.091Z,21.10
2018-07-03T20:34:33.785Z,21.20
2018-07-03T20:37:01.508Z,20.90
2018-07-03T20:39:29.251Z,20.90
2018-07-03T20:41:57.001Z,20.80
2018-07-03T20:44:24.869Z,20.50
2018-07-03T20:46:52.629Z,20.20
2018-07-03T20:49:20.337Z,20.00
2018-07-03T20:51:48.094Z,19.90
2018-07-03T20:54:15.847Z,19.90
2018-07-03T20:56:43.504Z,19.80
2018-07-03T20:59:11.333Z,19.80
2018-07-03T21:01:39.174Z,19.80
2018-07-03T21:04:06.932Z,19.70
2018-07-03T21:06:34.563Z,19.50
2018-07-03T21:09:02.580Z,19.60
2018-07-03T21:11:30.471Z,19.60
2018-07-03T21:13:58.216Z,19.50
2018-07-03T21:16:26.004Z,19.40
2018-07-03T21:18:53.996Z,19.50
2018-07-03T21:21:21.725Z,19.50
2018-07-03T21:23:49.481Z,19.50
2018-07-03T21:26:17.251Z,19.50
2018-07-03T21:28:44.930Z,19.40
2018-07-03T21:31:12.817Z,19.40
2018-07-03T21:33:40.551Z,19.30
2018-07-03T21:36:08.274Z,19.20
2018-07-03T21:38:35.986Z,19.00
2018-07-03T21:41:06.195Z,19.00
2018-07-03T21:43:33.934Z,19.10
2018-07-03T21:46:02.513Z,19.00
2018-07-03T21:48:30.188Z,19.00
2018-07-03T21:50:58.054Z,19.00
2018-07-03T21:53:25.803Z,19.00
2018-07-03T21:55:53.623Z,18.80
2018-07-03T21:58:21.325Z,18.80
2018-07-03T22:00:49.072Z,18.80
2018-07-03T22:03:16.769Z,18.80
2018-07-03T22:05:44.501Z,18.70
2018-07-03T22:08:12.208Z,18.60
2018-07-03T22:10:39.873Z,18.50
2018-07-03T22:13:07.562Z,18.50
2018-07-03T22:15:35.553Z,18.40
2018-07-03T22:18:03.348Z,18.40
2018-07-03T22:20:31.012Z,18.30
2018-07-03T22:22:58.737Z,18.20
2018-07-03T22:25:26.487Z,18.10
2018-07-03T22:27:54.664Z,17.90
2018-07-03T22:30:22.473Z,18.00
2018-07-03T22:32:50.285Z,18.00
2018-07-03T22:35:18.152Z,17.90
2018-07-03T22:37:46.101Z,17.90
2018-07-03T22:40:13.820Z,17.90
2018-07-03T22:42:41.625Z,18.00
2018-07-03T22:45:09.406Z,18.00
2018-07-03T22:47:37.058Z,18.00
2018-07-03T22:50:04.753Z,17.90
2018-07-03T22:52:32.446Z,17.80
2018-07-03T22:55:00.222Z,17.80
2018-07-03T22:57:27.872Z,17.80
2018-07-03T22:59:55.615Z,17.70
2018-07-03T23:02:23.372Z,17.70
2018-07-03T23:04:51.056Z,17.70
2018-07-03T23:07:18.777Z,17.80
2018-07-03T23:09:46.455Z,17.60
2018-07-03T23:12:18.096Z,17.60
2018-07-03T23:14:45.861Z,17.70
2018-07-03T23:17:13.772Z,17.60
2018-07-03T23:19:41.433Z,17.60
2018-07-03T23:22:09.126Z,17.50
2018-07-03T23:24:36.833Z,17.40
2018-07-03T23:27:04.532Z,17.40
2018-07-03T23:29:32.190Z,17.40
2018-07-03T23:31:59.857Z,17.40
2018-07-03T23:34:27.589Z,17.40
2018-07-03T23:36:55.236Z,17.20
2018-07-03T23:39:22.934Z,17.00
2018-07-03T23:41:50.696Z,17.10
2018-07-03T23:44:18.431Z,17.10
2018-07-03T23:46:57.564Z,17.10
2018-07-03T23:49:36.492Z,17.20
2018-07-03T23:52:15.396Z,17.20
2018-07-03T23:54:54.543Z,17.20
2018-07-03T23:57:33.508Z,17.10
